Time;durP1;ratioP1;P1;durP2;ratioP2;P2;SDS_P1;SDS_P2;PMS_P1;PMS_P2;Temp;Humidity;BMP_temperature;BMP_pressure;BME280_temperature;BME280_humidity;BME280_pressure;Samples;Min_cycle;Max_cycle;Signal;HPM_P1;HPM_P2
2022/07/08 00:00:17;;;;;;;6.93;1.23;;;14.00;99.90;;;;;;6255039;22;20015;-90
2022/07/08 00:02:44;;;;;;;4.95;1.58;;;14.00;99.90;;;;;;6280193;22;20098;-83
2022/07/08 00:05:10;;;;;;;8.25;1.40;;;13.90;99.90;;;;;;6279201;22;20019;-85
2022/07/08 00:07:36;;;;;;;8.88;1.20;;;13.90;99.90;;;;;;6253940;22;20022;-82
2022/07/08 00:10:03;;;;;;;6.43;1.35;;;13.90;99.90;;;;;;6279983;22;20042;-84
2022/07/08 00:12:29;;;;;;;10.00;2.10;;;13.90;99.90;;;;;;6279704;22;20102;-86
2022/07/08 00:14:56;;;;;;;6.45;1.20;;;13.90;99.90;;;;;;6253870;22;20438;-82
2022/07/08 00:17:22;;;;;;;7.15;1.30;;;13.90;99.90;;;;;;6306019;22;20064;-82
2022/07/08 00:19:48;;;;;;;8.70;2.15;;;13.90;99.90;;;;;;6230157;22;20018;-82
2022/07/08 00:22:16;;;;;;;7.20;1.38;;;13.90;99.90;;;;;;6287566;22;20021;-87
2022/07/08 00:24:41;;;;;;;12.02;1.60;;;13.90;99.90;;;;;;6291469;22;20021;-85
2022/07/08 00:27:07;;;;;;;11.27;1.42;;;13.90;99.90;;;;;;6287903;22;20015;-89
2022/07/08 00:29:34;;;;;;;8.15;1.20;;;13.90;99.90;;;;;;6289890;22;20022;-84
2022/07/08 00:32:02;;;;;;;5.30;1.38;;;13.90;99.90;;;;;;6316399;22;20019;-85
2022/07/08 00:34:47;;;;;;;6.55;1.10;;;13.90;99.90;;;;;;6234431;22;20440;-82
2022/07/08 00:37:13;;;;;;;7.93;1.40;;;13.90;99.90;;;;;;6284385;22;20344;-88
2022/07/08 00:39:40;;;;;;;7.55;1.67;;;13.90;99.90;;;;;;6257158;22;20544;-85
2022/07/08 00:42:06;;;;;;;7.13;1.35;;;13.80;99.90;;;;;;6282586;22;20015;-87
2022/07/08 00:44:33;;;;;;;9.10;1.20;;;13.80;99.90;;;;;;6256633;22;20102;-88
2022/07/08 00:46:59;;;;;;;11.10;2.13;;;13.80;99.90;;;;;;6281555;22;20018;-84
2022/07/08 00:49:25;;;;;;;6.70;1.50;;;13.80;99.90;;;;;;6279855;22;20095;-85
2022/07/08 00:52:12;;;;;;;12.73;1.60;;;13.80;99.90;;;;;;6256549;22;20018;-84
2022/07/08 00:54:39;;;;;;;8.02;1.70;;;13.80;99.90;;;;;;6279886;22;20071;-86
2022/07/08 00:57:05;;;;;;;12.20;2.00;;;13.80;99.90;;;;;;6256555;22;20023;-88
2022/07/08 00:59:31;;;;;;;7.55;1.40;;;13.80;99.90;;;;;;6256905;22;20351;-89
2022/07/08 01:02:17;;;;;;;7.95;1.30;;;14.40;99.90;;;;;;6284950;22;20019;-87
2022/07/08 01:04:43;;;;;;;9.68;1.45;;;13.80;99.90;;;;;;6259244;22;20030;-87
2022/07/08 01:07:28;;;;;;;8.55;1.75;;;13.80;99.90;;;;;;6285306;22;20037;-86
2022/07/08 01:09:59;;;;;;;9.27;1.40;;;13.80;99.90;;;;;;6256697;22;20026;-92
2022/07/08 01:12:26;;;;;;;9.80;1.83;;;13.70;99.90;;;;;;6250587;22;20021;-87
2022/07/08 01:14:52;;;;;;;7.47;1.65;;;13.60;99.90;;;;;;6247584;22;20055;-84
2022/07/08 01:17:18;;;;;;;8.32;1.60;;;13.60;99.90;;;;;;6251069;22;20396;-88
2022/07/08 01:19:44;;;;;;;9.82;1.70;;;13.50;99.90;;;;;;6274033;22;20027;-84
2022/07/08 01:22:18;;;;;;;4.28;1.10;;;13.50;99.90;;;;;;6225651;22;20022;-84
2022/07/08 01:24:44;;;;;;;9.10;1.77;;;13.50;99.90;;;;;;6273988;22;20124;-84
2022/07/08 01:27:10;;;;;;;9.27;1.40;;;13.50;99.90;;;;;;6273243;22;20019;-85
2022/07/08 01:29:36;;;;;;;12.80;1.52;;;13.50;99.90;;;;;;6272954;22;20015;-84
2022/07/08 01:32:02;;;;;;;20.27;6.97;;;13.50;99.90;;;;;;6274239;22;20025;-85
2022/07/08 01:34:28;;;;;;;12.18;1.63;;;13.40;99.90;;;;;;6272271;22;20015;-81
2022/07/08 01:36:54;;;;;;;8.38;1.50;;;13.40;99.90;;;;;;6274792;22;20042;-88
2022/07/08 01:39:21;;;;;;;9.55;1.50;;;13.40;99.90;;;;;;6248701;22;20019;-82
2022/07/08 01:41:47;;;;;;;7.75;1.40;;;13.30;99.90;;;;;;6248994;22;20049;-84
2022/07/08 01:44:19;;;;;;;9.95;1.85;;;13.30;99.90;;;;;;6224580;22;20436;-84
2022/07/08 01:46:46;;;;;;;9.40;1.30;;;13.20;99.90;;;;;;6223120;22;20041;-84
2022/07/08 01:49:14;;;;;;;8.10;1.60;;;13.20;99.90;;;;;;6221306;22;20073;-84
2022/07/08 01:51:41;;;;;;;7.30;1.42;;;13.20;99.90;;;;;;6246869;22;20023;-80
2022/07/08 01:54:07;;;;;;;6.15;1.45;;;13.20;99.90;;;;;;6273010;22;20025;-82
2022/07/08 01:56:33;;;;;;;8.82;1.27;;;13.20;99.90;;;;;;6247566;22;20023;-82
2022/07/08 01:59:00;;;;;;;9.57;1.60;;;13.20;99.90;;;;;;6245214;22;20037;-82
2022/07/08 02:01:26;;;;;;;7.63;1.30;;;13.20;99.90;;;;;;6246959;22;20094;-82
2022/07/08 02:03:53;;;;;;;9.40;1.63;;;13.20;99.90;;;;;;6220769;22;20019;-81
2022/07/08 02:08:51;;;;;;;11.10;1.70;;;13.10;99.90;;;;;;6335287;22;20026;-82
2022/07/08 02:14:02;;;;;;;8.82;1.42;;;13.10;99.90;;;;;;6291788;22;20018;-83
2022/07/08 02:16:28;;;;;;;7.35;1.48;;;;;;;;;;6309819;22;20022;-85
2022/07/08 02:18:54;;;;;;;11.43;1.60;;;13.10;99.90;;;;;;6309441;22;20139;-83
2022/07/08 02:21:20;;;;;;;7.22;1.80;;;13.10;99.90;;;;;;6308780;22;20531;-85
2022/07/08 02:23:46;;;;;;;11.18;1.80;;;13.00;99.90;;;;;;6308903;22;20063;-82
2022/07/08 02:26:12;;;;;;;5.88;1.20;;;13.00;99.90;;;;;;6259157;22;20093;-82
2022/07/08 02:28:38;;;;;;;9.00;1.90;;;13.00;99.90;;;;;;6283215;22;20446;-86
2022/07/08 02:31:04;;;;;;;8.52;1.58;;;12.90;99.90;;;;;;6283229;22;20010;-83
2022/07/08 02:33:30;;;;;;;5.55;1.35;;;13.00;99.90;;;;;;6282028;22;20059;-84
2022/07/08 02:35:56;;;;;;;7.70;1.52;;;13.00;99.90;;;;;;6283162;22;20490;-85
2022/07/08 02:41:46;;;;;;;5.63;1.38;;;13.00;99.90;;;;;;6341055;22;20101;-83
2022/07/08 02:44:14;;;;;;;8.80;1.55;;;13.00;99.90;;;;;;6341005;22;20041;-85
2022/07/08 02:46:41;;;;;;;6.90;1.23;;;13.00;99.90;;;;;;6339478;22;20056;-84
2022/07/08 02:49:10;;;;;;;6.32;1.40;;;13.00;99.90;;;;;;6261276;22;20010;-86
2022/07/08 02:51:38;;;;;;;8.68;1.67;;;12.90;99.90;;;;;;6337564;22;20024;-85
2022/07/08 02:54:04;;;;;;;7.72;1.40;;;12.90;99.90;;;;;;6312361;22;20011;-83
2022/07/08 02:56:31;;;;;;;10.82;1.55;;;12.80;99.90;;;;;;6340247;22;20018;-87
2022/07/08 02:58:58;;;;;;;9.63;1.52;;;12.80;99.90;;;;;;6287535;22;20022;-86
2022/07/08 03:01:33;;;;;;;8.23;1.50;;;12.80;99.90;;;;;;6315803;22;20041;-89
2022/07/08 03:03:59;;;;;;;7.20;1.52;;;12.80;99.90;;;;;;6341724;22;20082;-87
2022/07/08 03:06:25;;;;;;;9.25;1.83;;;12.80;99.90;;;;;;6315499;22;20019;-85
2022/07/08 03:08:51;;;;;;;8.93;1.60;;;12.70;99.90;;;;;;6288566;22;20128;-87
2022/07/08 03:11:20;;;;;;;7.75;1.30;;;12.70;99.90;;;;;;6338999;22;20064;-85
2022/07/08 03:13:47;;;;;;;8.65;1.60;;;12.70;99.90;;;;;;6313848;22;20010;-86
2022/07/08 03:16:13;;;;;;;8.20;1.50;;;12.60;99.90;;;;;;6287799;22;20030;-85
2022/07/08 03:18:40;;;;;;;7.95;2.05;;;12.70;99.90;;;;;;6285233;22;20045;-85
2022/07/08 03:21:07;;;;;;;8.63;2.22;;;12.60;99.90;;;;;;6286157;22;20018;-84
2022/07/08 03:23:34;;;;;;;4.63;1.73;;;12.60;99.90;;;;;;6289201;22;20092;-88
2022/07/08 03:26:01;;;;;;;9.93;1.60;;;12.60;99.90;;;;;;6287495;22;20018;-86
2022/07/08 03:28:29;;;;;;;6.88;1.50;;;12.60;99.90;;;;;;6338253;22;20068;-86
2022/07/08 03:30:55;;;;;;;;;;;12.60;99.90;;;;;;6313169;22;20029;-86
2022/07/08 03:33:21;;;;;;;7.57;1.67;;;12.60;99.90;;;;;;6312042;22;19967;-85
2022/07/08 03:35:47;;;;;;;9.73;1.52;;;12.60;99.90;;;;;;6314274;22;20022;-87
2022/07/08 03:38:16;;;;;;;7.25;1.60;;;12.60;99.90;;;;;;6291332;22;20019;-87
2022/07/08 03:43:32;;;;;;;5.30;1.55;;;12.50;99.90;;;;;;6320412;22;20025;-87
2022/07/08 03:45:58;;;;;;;9.63;1.80;;;12.60;99.90;;;;;;6349340;22;20022;-88
2022/07/08 03:48:24;;;;;;;9.48;2.58;;;12.50;99.90;;;;;;6326478;22;20018;-88
2022/07/08 03:50:50;;;;;;;10.18;1.98;;;12.60;99.90;;;;;;6327764;22;20030;-87
2022/07/08 03:53:17;;;;;;;6.07;1.58;;;12.60;99.90;;;;;;6327207;22;20185;-87
2022/07/08 03:55:44;;;;;;;9.88;1.60;;;12.50;99.90;;;;;;6276886;22;20014;-87
2022/07/08 03:58:12;;;;;;;9.02;1.67;;;12.60;99.90;;;;;;6295122;22;20018;-86
2022/07/08 04:00:38;;;;;;;7.68;1.42;;;12.60;99.90;;;;;;6316335;22;20015;-84
2022/07/08 04:03:05;;;;;;;8.98;1.67;;;12.60;99.90;;;;;;6314538;22;20021;-85
2022/07/08 04:05:33;;;;;;;8.20;1.65;;;12.60;99.90;;;;;;6316179;22;20579;-86
2022/07/08 04:07:59;;;;;;;9.88;1.67;;;12.60;99.90;;;;;;6310085;22;20019;-85
2022/07/08 04:10:25;;;;;;;6.22;1.45;;;12.70;99.90;;;;;;6309765;22;20090;-87
2022/07/08 04:12:53;;;;;;;8.77;1.85;;;12.70;99.90;;;;;;6285515;22;20015;-85
2022/07/08 04:15:19;;;;;;;8.80;2.05;;;12.70;99.90;;;;;;6256753;22;20038;-87
2022/07/08 04:17:45;;;;;;;7.88;1.90;;;12.70;99.90;;;;;;6306305;22;20010;-86
2022/07/08 04:20:11;;;;;;;9.50;2.10;;;12.80;99.90;;;;;;6230785;22;20014;-85
2022/07/08 04:22:37;;;;;;;8.68;1.95;;;12.80;99.90;;;;;;6255989;22;20034;-85
2022/07/08 04:25:04;;;;;;;7.88;1.77;;;12.80;99.90;;;;;;6256431;22;20098;-83
2022/07/08 04:27:31;;;;;;;9.63;1.60;;;12.90;99.90;;;;;;6254849;22;20054;-84
2022/07/08 04:29:58;;;;;;;12.23;1.80;;;12.90;99.90;;;;;;6307144;22;20469;-83
2022/07/08 04:32:24;;;;;;;10.38;2.15;;;12.90;99.90;;;;;;6230592;22;20802;-83
2022/07/08 04:34:51;;;;;;;8.38;2.30;;;13.00;99.90;;;;;;6254125;22;20018;-83
2022/07/08 04:37:18;;;;;;;7.45;1.73;;;13.00;99.90;;;;;;6279835;22;20469;-83
2022/07/08 04:39:46;;;;;;;8.63;1.85;;;13.10;99.90;;;;;;6279914;22;20018;-82
2022/07/08 04:42:18;;;;;;;14.15;2.03;;;13.20;99.90;;;;;;6281037;22;20015;-82
2022/07/08 04:44:44;;;;;;;6.03;1.77;;;13.20;99.90;;;;;;6255053;22;20023;-84
2022/07/08 04:47:11;;;;;;;6.97;1.80;;;13.30;99.90;;;;;;6283741;22;20097;-85
2022/07/08 04:49:37;;;;;;;12.07;1.70;;;13.40;99.90;;;;;;6311160;22;20680;-87
2022/07/08 04:52:08;;;;;;;10.45;2.22;;;13.40;99.90;;;;;;6260245;22;20124;-85
2022/07/08 04:54:37;;;;;;;7.47;1.95;;;13.50;99.90;;;;;;6288166;22;20204;-86
2022/07/08 04:57:06;;;;;;;9.60;2.05;;;13.50;99.90;;;;;;6292686;22;20017;-86
2022/07/08 04:59:33;;;;;;;10.00;2.17;;;13.60;99.90;;;;;;6289725;22;20080;-88
2022/07/08 05:02:00;;;;;;;;;;;13.60;99.90;;;;;;6293227;22;20014;-84
2022/07/08 05:04:26;;;;;;;7.43;1.95;;;13.70;99.90;;;;;;6287664;22;19914;-84
2022/07/08 05:06:52;;;;;;;10.02;1.90;;;13.70;99.90;;;;;;6306033;22;20565;-84
2022/07/08 05:09:19;;;;;;;11.20;2.10;;;13.80;99.90;;;;;;6254088;22;20019;-88
2022/07/08 05:11:46;;;;;;;13.50;2.70;;;13.80;99.90;;;;;;6255168;22;20026;-84
2022/07/08 05:14:13;;;;;;;;;;;13.90;99.90;;;;;;6229979;22;20018;-85
2022/07/08 05:16:40;;;;;;;11.35;1.77;;;14.00;99.90;;;;;;6253929;22;19933;-84
2022/07/08 05:19:08;;;;;;;8.68;1.92;;;14.00;99.90;;;;;;6277980;22;20015;-84
2022/07/08 05:21:36;;;;;;;;;;;14.10;99.90;;;;;;6307520;22;20015;-85
2022/07/08 05:24:06;;;;;;;10.45;2.28;;;14.10;99.90;;;;;;6256932;22;19937;-87
2022/07/08 05:26:34;;;;;;;7.95;2.20;;;14.20;99.90;;;;;;6280297;22;20067;-90
2022/07/08 05:29:00;;;;;;;8.27;1.77;;;14.20;99.90;;;;;;6256385;22;20018;-86
2022/07/08 05:31:26;;;;;;;8.15;2.03;;;14.30;99.90;;;;;;6232305;22;20014;-86
2022/07/08 05:33:54;;;;;;;14.45;2.00;;;14.30;99.90;;;;;;6255667;22;20018;-89
2022/07/08 05:36:21;;;;;;;;;;;14.30;99.90;;;;;;6309309;22;20015;-88
2022/07/08 05:38:47;;;;;;;9.07;1.65;;;14.40;99.90;;;;;;6280026;22;20014;-86
2022/07/08 05:41:13;;;;;;;7.80;2.13;;;14.40;99.90;;;;;;6257170;22;20011;-88
2022/07/08 05:43:39;;;;;;;17.33;2.42;;;14.40;99.90;;;;;;6231030;22;20669;-87
2022/07/08 05:46:05;;;;;;;7.60;1.98;;;14.50;99.90;;;;;;6283537;22;20010;-85
2022/07/08 05:48:33;;;;;;;10.45;2.10;;;14.60;99.90;;;;;;6315705;22;20022;-88
2022/07/08 05:51:01;;;;;;;8.57;1.92;;;14.60;99.90;;;;;;6281980;22;20327;-83
2022/07/08 05:53:27;;;;;;;10.18;2.28;;;14.70;99.90;;;;;;6253195;22;20029;-81
2022/07/08 05:55:53;;;;;;;9.75;2.15;;;14.80;99.90;;;;;;6253834;22;20022;-85
2022/07/08 05:58:19;;;;;;;7.93;1.60;;;14.80;99.90;;;;;;6278254;22;20022;-86
2022/07/08 06:00:45;;;;;;;14.40;2.03;;;14.80;99.90;;;;;;6254553;22;20067;-85
2022/07/08 06:03:11;;;;;;;8.23;1.90;;;14.90;99.90;;;;;;6279437;22;20011;-84
2022/07/08 06:05:37;;;;;;;11.45;2.40;;;15.00;99.90;;;;;;6298700;22;20031;-85
2022/07/08 06:08:03;;;;;;;7.93;2.13;;;15.10;99.90;;;;;;6277167;22;20011;-83
2022/07/08 06:10:30;;;;;;;7.78;2.35;;;15.10;99.90;;;;;;6252560;22;20030;-85
2022/07/08 06:12:56;;;;;;;9.68;1.80;;;15.20;99.90;;;;;;6251101;22;20011;-84
2022/07/08 06:15:22;;;;;;;7.85;1.83;;;15.20;99.90;;;;;;6274821;22;20019;-87
2022/07/08 06:17:48;;;;;;;9.73;1.80;;;15.30;99.90;;;;;;6251540;22;20068;-84
2022/07/08 06:20:14;;;;;;;8.00;1.70;;;14.80;99.90;;;;;;6248949;22;20019;-85
2022/07/08 06:22:43;;;;;;;9.38;1.90;;;15.50;99.90;;;;;;6277495;22;20072;-85
2022/07/08 06:25:09;;;;;;;7.85;1.88;;;15.50;99.90;;;;;;6279293;22;20026;-85
2022/07/08 06:27:37;;;;;;;10.23;2.10;;;15.50;99.90;;;;;;6277477;22;20015;-84
2022/07/08 06:30:04;;;;;;;14.02;2.22;;;15.60;99.90;;;;;;6276566;22;20091;-79
2022/07/08 06:32:30;;;;;;;8.23;2.10;;;15.60;99.90;;;;;;6228040;22;20019;-79
2022/07/08 06:34:56;;;;;;;8.43;1.85;;;15.70;99.90;;;;;;6276256;22;20044;-81
2022/07/08 06:37:22;;;;;;;13.77;2.00;;;15.80;99.90;;;;;;6253526;22;20015;-79
2022/07/08 06:39:47;;;;;;;8.77;2.05;;;15.90;99.90;;;;;;6277247;22;20059;-79
2022/07/08 06:42:14;;;;;;;9.68;2.22;;;16.00;99.90;;;;;;6278318;22;20014;-78
2022/07/08 06:44:40;;;;;;;8.55;1.58;;;16.10;99.90;;;;;;6252159;22;20018;-81
2022/07/08 06:47:06;;;;;;;9.10;2.05;;;16.20;99.90;;;;;;6278458;22;20022;-79
2022/07/08 06:49:32;;;;;;;13.20;2.10;;;16.30;99.90;;;;;;6250330;22;20021;-78
2022/07/08 06:51:57;;;;;;;9.98;2.03;;;16.30;99.90;;;;;;6277983;22;20015;-80
2022/07/08 06:54:35;;;;;;;6.00;1.83;;;16.30;99.90;;;;;;6279937;22;20015;-80
2022/07/08 06:57:03;;;;;;;;;;;16.50;99.90;;;;;;6236151;22;20018;-80
2022/07/08 07:02:54;;;;;;;9.48;1.88;;;16.50;99.90;;;;;;6311956;22;20023;-88
2022/07/08 07:05:20;;;;;;;8.13;1.80;;;16.60;99.90;;;;;;6282140;22;20014;-87
2022/07/08 07:07:47;;;;;;;7.15;1.60;;;16.60;99.90;;;;;;6230778;22;20224;-84
2022/07/08 07:10:14;;;;;;;11.53;2.10;;;16.60;99.90;;;;;;6278331;22;20075;-83
2022/07/08 07:12:45;;;;;;;11.27;1.67;;;16.70;99.90;;;;;;6253926;22;20089;-84
2022/07/08 07:15:11;;;;;;;7.65;1.67;;;16.60;99.90;;;;;;6278608;22;20019;-83
2022/07/08 07:17:44;;;;;;;5.93;1.45;;;16.60;99.90;;;;;;6279298;22;20038;-83
2022/07/08 07:20:10;;;;;;;11.80;2.05;;;16.60;99.90;;;;;;6277324;22;20073;-84
2022/07/08 07:22:38;;;;;;;9.95;1.52;;;16.60;99.90;;;;;;6278354;22;20364;-87
2022/07/08 07:25:04;;;;;;;12.25;1.75;;;16.60;99.90;;;;;;6304749;22;20025;-86
2022/07/08 07:27:30;;;;;;;4.87;1.40;;;16.60;99.90;;;;;;6280920;22;20021;-83
2022/07/08 07:29:56;;;;;;;10.23;1.60;;;16.60;99.90;;;;;;6279677;22;20102;-83
2022/07/08 07:32:22;;;;;;;7.32;1.80;;;16.60;99.90;;;;;;6279559;22;20448;-82
2022/07/08 07:34:48;;;;;;;5.93;1.50;;;16.70;99.90;;;;;;6279118;22;20097;-84
2022/07/08 07:37:14;;;;;;;8.35;2.08;;;16.70;99.90;;;;;;6278863;22;20094;-82
2022/07/08 07:39:40;;;;;;;4.32;1.40;;;16.80;99.90;;;;;;6276625;22;20038;-86
2022/07/08 07:42:07;;;;;;;5.18;1.60;;;16.80;99.90;;;;;;6253610;22;20029;-83
2022/07/08 07:44:33;;;;;;;7.80;1.67;;;16.80;99.90;;;;;;6278136;22;20680;-83
2022/07/08 07:46:59;;;;;;;9.52;1.73;;;16.80;99.90;;;;;;6278658;22;20015;-84
2022/07/08 07:49:25;;;;;;;6.22;1.40;;;16.90;99.90;;;;;;6225806;22;20101;-83
2022/07/08 07:51:53;;;;;;;8.32;1.75;;;16.90;99.90;;;;;;6308315;22;20046;-84
2022/07/08 07:54:21;;;;;;;5.00;1.30;;;16.90;99.90;;;;;;6282659;22;20021;-84
2022/07/08 07:56:49;;;;;;;8.85;1.90;;;16.90;99.90;;;;;;6308790;22;20070;-83
2022/07/08 07:59:15;;;;;;;8.13;1.65;;;16.90;99.90;;;;;;6282281;22;20026;-82
2022/07/08 08:01:41;;;;;;;8.00;1.40;;;16.90;99.90;;;;;;6280675;22;20588;-82
2022/07/08 08:04:07;;;;;;;9.18;1.45;;;17.00;99.90;;;;;;6252947;22;20018;-82
2022/07/08 08:06:33;;;;;;;9.35;1.98;;;17.10;99.90;;;;;;6304683;22;20018;-83
2022/07/08 08:08:59;;;;;;;6.53;1.77;;;17.00;99.90;;;;;;6278691;22;20064;-82
2022/07/08 08:11:25;;;;;;;7.32;1.67;;;17.10;99.90;;;;;;6305673;22;20023;-83
2022/07/08 08:13:51;;;;;;;6.13;1.63;;;16.80;99.90;;;;;;6253741;22;20025;-85
2022/07/08 08:16:17;;;;;;;6.13;1.75;;;17.10;99.90;;;;;;6279093;22;20036;-84
2022/07/08 08:18:43;;;;;;;5.20;1.25;;;17.20;99.90;;;;;;6303810;22;20523;-84
2022/07/08 08:21:09;;;;;;;6.65;1.80;;;17.20;99.90;;;;;;6254673;22;20015;-84
2022/07/08 08:23:35;;;;;;;7.82;1.80;;;17.20;99.90;;;;;;6306229;22;20026;-83
2022/07/08 08:26:02;;;;;;;6.38;1.48;;;17.20;99.90;;;;;;6314830;22;20093;-83
2022/07/08 08:28:27;;;;;;;8.68;1.95;;;17.30;99.90;;;;;;6280247;22;20068;-83
2022/07/08 08:30:54;;;;;;;5.28;1.70;;;17.30;99.90;;;;;;6279956;22;20019;-84
2022/07/08 08:33:20;;;;;;;5.20;1.58;;;17.30;99.90;;;;;;6277815;22;20106;-84
2022/07/08 08:35:46;;;;;;;7.60;2.38;;;17.30;99.90;;;;;;6278692;22;20018;-85
2022/07/08 08:38:13;;;;;;;9.50;2.33;;;17.30;99.90;;;;;;6302289;22;20022;-88
2022/07/08 08:40:41;;;;;;;;;;;17.30;99.90;;;;;;6280223;22;20101;-85
2022/07/08 08:43:07;;;;;;;7.70;1.77;;;16.90;99.90;;;;;;6278987;22;19973;-85
2022/07/08 08:45:34;;;;;;;8.38;1.75;;;17.30;99.90;;;;;;6252694;22;20011;-85
2022/07/08 08:48:10;;;;;;;7.03;1.73;;;17.30;99.90;;;;;;6304182;22;20025;-83
2022/07/08 08:50:56;;;;;;;5.95;1.52;;;17.30;99.90;;;;;;6278766;22;20018;-81
2022/07/08 08:53:37;;;;;;;6.15;1.65;;;17.30;99.90;;;;;;6303767;22;20018;-87
2022/07/08 08:56:04;;;;;;;5.93;1.52;;;17.30;99.90;;;;;;6278623;22;20047;-82
2022/07/08 08:58:48;;;;;;;8.50;1.30;;;17.30;99.90;;;;;;6301349;22;20101;-82
2022/07/08 09:01:20;;;;;;;5.15;1.58;;;17.40;99.90;;;;;;6305192;22;20025;-85
2022/07/08 09:04:11;;;;;;;5.30;1.50;;;17.20;99.90;;;;;;6302847;22;20026;-84
2022/07/08 09:06:41;;;;;;;7.43;1.80;;;17.30;99.90;;;;;;6277574;22;20050;-83
2022/07/08 09:09:50;;;;;;;7.63;1.65;;;17.70;99.90;;;;;;6284307;22;20030;-83
2022/07/08 09:12:19;;;;;;;5.03;1.60;;;17.40;99.90;;;;;;6305409;22;20014;-81
2022/07/08 09:14:50;;;;;;;10.00;2.33;;;17.60;99.90;;;;;;6252898;22;20018;-81
2022/07/08 09:17:17;;;;;;;5.15;1.50;;;17.70;99.90;;;;;;6304546;22;20022;-80
2022/07/08 09:19:46;;;;;;;6.63;1.77;;;17.80;99.90;;;;;;6303648;22;20391;-85
2022/07/08 09:22:12;;;;;;;6.85;1.83;;;17.90;99.90;;;;;;6309022;22;20017;-84
2022/07/08 09:24:39;;;;;;;8.27;2.25;;;18.90;99.90;;;;;;6310263;22;20060;-82
2022/07/08 09:27:07;;;;;;;7.90;1.87;;;18.10;99.90;;;;;;6333276;22;20094;-81
2022/07/08 09:29:33;;;;;;;9.40;1.77;;;18.10;99.90;;;;;;6303722;22;20029;-82
2022/07/08 09:32:10;;;;;;;8.38;1.67;;;18.10;99.90;;;;;;6279030;22;20015;-83
2022/07/08 09:34:37;;;;;;;7.90;1.85;;;18.20;99.90;;;;;;6330732;22;20392;-82
2022/07/08 09:37:23;;;;;;;5.23;1.73;;;18.20;99.90;;;;;;6304846;22;20540;-83
2022/07/08 09:39:50;;;;;;;6.63;1.80;;;18.30;99.90;;;;;;6306365;22;20014;-82
2022/07/08 09:42:17;;;;;;;8.52;1.83;;;17.80;99.90;;;;;;6307709;22;20040;-82
2022/07/08 09:45:07;;;;;;;6.30;1.90;;;18.20;99.90;;;;;;6256884;22;20050;-82
2022/07/08 09:47:34;;;;;;;5.45;1.60;;;18.30;99.90;;;;;;6307369;22;20023;-84
2022/07/08 09:50:01;;;;;;;;;;;18.40;99.90;;;;;;6280608;22;20492;-84
2022/07/08 09:52:28;;;;;;;8.68;1.60;;;18.40;99.90;;;;;;6304487;22;19941;-80
2022/07/08 09:55:04;;;;;;;8.30;1.95;;;18.50;99.90;;;;;;6303745;22;20038;-84
2022/07/08 09:57:49;;;;;;;7.68;1.90;;;18.50;99.90;;;;;;6331184;22;20018;-86
2022/07/08 10:03:42;;;;;;;6.35;1.75;;;18.60;99.90;;;;;;6336093;22;20026;-93
2022/07/08 10:06:17;;;;;;;9.93;1.55;;;18.60;99.90;;;;;;6256484;22;20025;-83
2022/07/08 10:08:46;;;;;;;7.35;1.60;;;18.60;99.90;;;;;;6256972;22;20085;-81
2022/07/08 10:11:27;;;;;;;7.75;1.60;;;18.60;99.90;;;;;;6304159;22;20058;-86
2022/07/08 10:13:55;;;;;;;6.38;1.60;;;18.10;99.90;;;;;;6250349;22;20010;-83
2022/07/08 10:16:31;;;;;;;6.82;1.83;;;18.60;99.90;;;;;;6253859;22;20033;-84
2022/07/08 10:18:58;;;;;;;7.50;1.70;;;18.60;99.90;;;;;;6271812;22;20070;-83
2022/07/08 10:21:26;;;;;;;4.05;1.58;;;18.70;99.90;;;;;;6276873;22;20608;-80
2022/07/08 10:23:53;;;;;;;7.72;1.73;;;18.80;99.90;;;;;;6276603;22;20071;-83
2022/07/08 10:26:27;;;;;;;7.00;1.58;;;19.00;99.90;;;;;;6285057;22;20437;-82
2022/07/08 10:29:05;;;;;;;9.95;1.80;;;19.10;99.90;;;;;;6281892;22;20022;-79
2022/07/08 10:31:39;;;;;;;;;;;19.10;99.90;;;;;;6278555;22;20444;-80
2022/07/08 10:34:07;;;;;;;4.47;1.83;;;19.10;99.90;;;;;;6276103;22;19922;-83
2022/07/08 10:36:53;;;;;;;5.97;1.90;;;19.10;99.90;;;;;;6276425;22;20022;-85
2022/07/08 10:39:36;;;;;;;6.63;1.83;;;19.10;99.90;;;;;;6301260;22;20018;-79
2022/07/08 10:42:09;;;;;;;9.27;1.92;;;19.20;99.90;;;;;;6301836;22;20475;-77
2022/07/08 10:44:45;;;;;;;5.38;1.80;;;19.30;99.90;;;;;;6302616;22;20019;-81
2022/07/08 10:47:13;;;;;;;8.55;1.73;;;19.30;99.90;;;;;;6278619;22;20022;-79
2022/07/08 10:49:47;;;;;;;7.85;1.65;;;19.40;99.90;;;;;;6275053;22;20018;-80
2022/07/08 10:52:14;;;;;;;5.88;1.90;;;19.50;99.90;;;;;;6302679;22;20532;-79
2022/07/08 10:54:42;;;;;;;8.65;1.95;;;19.60;99.90;;;;;;6301094;22;20451;-81
2022/07/08 10:57:24;;;;;;;;;;;19.60;99.90;;;;;;6276908;22;20023;-83
2022/07/08 11:00:13;;;;;;;7.68;1.75;;;18.30;99.90;;;;;;6278643;22;19919;-81
2022/07/08 11:02:42;;;;;;;6.57;1.80;;;19.60;99.90;;;;;;6303814;22;20061;-81
2022/07/08 11:05:38;;;;;;;7.10;1.90;;;19.60;99.90;;;;;;6303099;22;20046;-86
2022/07/08 11:08:20;;;;;;;6.40;1.75;;;19.50;99.90;;;;;;6268619;22;20018;-88
2022/07/08 11:10:47;;;;;;;9.73;1.83;;;19.60;99.90;;;;;;6280311;22;20337;-88
2022/07/08 11:13:13;;;;;;;6.10;1.60;;;19.80;99.90;;;;;;6253778;22;20018;-89
2022/07/08 11:15:39;;;;;;;9.82;1.75;;;;;;;;;;6279871;22;20096;-84
2022/07/08 11:18:05;;;;;;;7.57;1.33;;;20.20;99.90;;;;;;6255245;22;20128;-91
2022/07/08 11:20:32;;;;;;;6.00;1.60;;;20.40;99.90;;;;;;6254154;22;20436;-90
2022/07/08 11:23:03;;;;;;;4.55;1.80;;;20.40;99.90;;;;;;6254890;22;20076;-85
2022/07/08 11:25:30;;;;;;;6.60;1.70;;;20.50;99.90;;;;;;6305700;22;20471;-89
2022/07/08 11:27:56;;;;;;;5.65;1.55;;;20.80;99.90;;;;;;6303905;22;20041;-86
2022/07/08 11:30:21;;;;;;;5.43;1.58;;;21.00;99.90;;;;;;6254014;22;20396;-87
2022/07/08 11:32:50;;;;;;;9.10;1.90;;;21.20;99.90;;;;;;6279620;22;20027;-89
2022/07/08 11:35:17;;;;;;;8.95;2.10;;;21.40;99.90;;;;;;6304312;22;20018;-92
2022/07/08 11:37:46;;;;;;;10.23;1.90;;;21.40;99.90;;;;;;6254474;22;20023;-89
2022/07/08 11:40:14;;;;;;;4.63;1.60;;;21.50;99.90;;;;;;6304544;22;20029;-91
2022/07/08 11:42:41;;;;;;;5.63;2.00;;;21.30;99.90;;;;;;6279309;22;20101;-88
2022/07/08 11:45:09;;;;;;;3.55;1.40;;;21.10;99.90;;;;;;6279232;22;20407;-88
2022/07/08 11:47:35;;;;;;;6.60;1.73;;;21.10;99.90;;;;;;6279628;22;20456;-88
2022/07/08 11:50:02;;;;;;;2.95;1.55;;;20.90;99.90;;;;;;6278195;22;20432;-83
2022/07/08 11:52:29;;;;;;;5.60;1.60;;;20.80;99.90;;;;;;6278570;22;20019;-84
2022/07/08 11:54:57;;;;;;;7.20;1.90;;;20.70;99.90;;;;;;6304721;22;20019;-84
2022/07/08 11:57:23;;;;;;;6.43;1.92;;;20.60;99.90;;;;;;6253054;22;20076;-87
2022/07/08 11:59:50;;;;;;;7.50;1.73;;;20.70;99.90;;;;;;6227733;22;20463;-87
2022/07/08 12:02:26;;;;;;;6.25;1.60;;;20.60;99.90;;;;;;6278901;22;20025;-89
2022/07/08 12:04:52;;;;;;;4.18;1.77;;;20.70;99.90;;;;;;6252058;22;20097;-87
2022/07/08 12:07:26;;;;;;;5.60;1.80;;;21.00;99.90;;;;;;6278939;22;20023;-84
2022/07/08 12:09:52;;;;;;;6.18;2.03;;;21.10;99.90;;;;;;6278498;22;20332;-92
2022/07/08 12:12:21;;;;;;;3.60;1.60;;;21.20;99.90;;;;;;6279493;22;20018;-91
2022/07/08 12:14:48;;;;;;;6.30;2.08;;;21.40;99.90;;;;;;6304491;22;20223;-81
2022/07/08 12:17:28;;;;;;;6.07;2.10;;;21.60;99.90;;;;;;6253401;22;20451;-86
2022/07/08 12:19:55;;;;;;;7.55;2.65;;;21.60;99.90;;;;;;6277791;22;20025;-86
2022/07/08 12:22:45;;;;;;;6.28;2.35;;;21.60;99.90;;;;;;6253777;22;20015;-85
2022/07/08 12:25:16;;;;;;;4.18;2.13;;;21.50;99.90;;;;;;6279099;22;20033;-88
2022/07/08 12:27:44;;;;;;;6.78;2.13;;;21.30;99.90;;;;;;6281245;22;20010;-87
2022/07/08 12:30:11;;;;;;;4.88;1.80;;;21.30;99.90;;;;;;6256670;22;20528;-88
2022/07/08 12:32:45;;;;;;;6.25;1.77;;;21.20;99.90;;;;;;6282960;22;20018;-90
2022/07/08 12:35:12;;;;;;;9.43;2.22;;;21.10;99.90;;;;;;6307362;22;20015;-90
2022/07/08 12:38:03;;;;;;;5.37;2.10;;;21.00;99.90;;;;;;6255233;22;20513;-93
2022/07/08 12:40:38;;;;;;;7.82;2.70;;;20.90;99.90;;;;;;6282163;22;21090;-90
2022/07/08 12:43:11;;;;;;;8.73;2.28;;;20.80;99.90;;;;;;6283492;22;20022;-92
2022/07/08 12:45:38;;;;;;;5.20;1.50;;;20.80;99.90;;;;;;6307653;22;20018;-90
2022/07/08 12:48:04;;;;;;;6.97;1.80;;;20.80;99.90;;;;;;6280142;22;20531;-92
2022/07/08 12:50:31;;;;;;;6.77;1.90;;;20.90;99.90;;;;;;6302838;22;20029;-85
2022/07/08 12:52:58;;;;;;;6.05;2.20;;;20.90;99.90;;;;;;6278577;22;21017;-83
2022/07/08 12:55:25;;;;;;;8.30;2.70;;;20.90;99.90;;;;;;6275856;22;20416;-86
2022/07/08 12:57:51;;;;;;;;;;;20.90;99.90;;;;;;6277703;22;20022;-80
2022/07/08 13:00:18;;;;;;;5.57;2.40;;;20.90;99.90;;;;;;6330620;22;19995;-81
2022/07/08 13:02:44;;;;;;;7.28;2.35;;;20.90;99.90;;;;;;6252216;22;20587;-82
2022/07/08 13:05:10;;;;;;;6.18;2.30;;;21.00;99.90;;;;;;6241441;22;20481;-83
2022/07/08 13:07:39;;;;;;;4.33;1.90;;;21.00;99.90;;;;;;6299497;22;20018;-85
2022/07/08 13:10:05;;;;;;;7.05;2.40;;;21.00;99.90;;;;;;6318039;22;20027;-83
2022/07/08 13:12:32;;;;;;;5.00;1.58;;;21.10;99.90;;;;;;6304099;22;20387;-80